CST,Max TemperatureF,Mean TemperatureF,Min TemperatureF,Max Dew PointF,MeanDew PointF,Min DewpointF,Max Humidity, Mean Humidity, Min Humidity, Max Sea Level PressureIn, Mean Sea Level PressureIn, Min Sea Level PressureIn, Max VisibilityMiles, Mean VisibilityMiles, Min VisibilityMiles, Max Wind SpeedMPH, Mean Wind SpeedMPH, Max Gust SpeedMPH,PrecipitationIn, CloudCover, Events, WindDirDegrees
2011-12-1,61,44,28,38,31,25,92,72,31,30.36,30.29,30.20,10,10,10,6,2,,0.00,0,,1
2011-12-2,66,48,30,41,35,28,92,70,32,30.45,30.39,30.35,10,10,10,6,1,,0.00,0,Hail,31
2011-12-3,68,51,34,46,37,31,92,59,37,30.44,30.37,30.32,10,10,10,10,3,,0.00,0,Hail,109
2011-12-4,72,62,51,53,49,42,87,67,44,30.32,30.23,30.14,10,10,10,15,7,24,0.00,2,,114
2011-12-5,73,64,54,65,61,53,100,89,64,30.13,30.05,30.00,10,9,2,16,5,20,0.08,4,Rain,148
2011-12-6,66,57,48,66,56,47,100,97,93,30.08,30.03,29.99,10,5,1,8,6,,0.49,8,Rain,276
2011-12-7,46,42,37,46,37,30,97,83,65,30.27,30.10,29.97,10,9,3,18,10,29,0.13,7,Rain,289
2011-12-8,51,40,30,35,31,28,92,78,46,30.36,30.28,30.22,10,10,10,14,4,,0.00,0,,322
2011-12-9,54,41,28,39,33,27,96,72,47,30.30,30.26,30.23,10,10,10,7,2,,0.00,0,,339
2011-12-10,55,46,36,32,29,26,79,59,34,30.40,30.36,30.31,10,10,10,14,7,22,0.00,0,,353
2011-12-11,51,42,34,36,32,27,79,59,50,30.42,30.35,30.31,10,10,10,12,7,16,0.00,3,,53
2011-12-12,55,50,46,47,44,38,96,82,63,30.41,30.36,30.31,10,9,1,9,6,,0.00,8,Rain,75
2011-12-13,70,56,43,52,47,42,100,85,51,30.44,30.38,30.33,10,6,1,8,5,,0.00,3,Hail,43
2011-12-14,73,60,46,52,49,44,92,73,43,30.34,30.27,30.21,10,10,4,9,2,18,0.00,0,,141
2011-12-15,72,58,45,62,52,44,100,90,66,30.25,30.19,30.13,10,5,0,9,1,17,0.00,1,Fog-Rain,161
2011-12-16,72,64,55,63,59,53,100,87,61,30.23,30.19,30.14,10,9,2,13,6,16,0.05,7,Rain,230
2011-12-17,57,49,39,52,40,28,97,73,34,30.36,30.30,30.22,10,10,10,12,7,,0.00,4,,333
2011-12-18,59,46,32,34,29,24,89,62,26,30.42,30.34,30.29,10,10,10,9,5,,0.00,0,,358
2011-12-19,66,50,33,53,43,29,92,75,53,30.28,30.20,30.11,10,10,10,8,3,,0.00,2,Rain,128
2011-12-20,64,60,57,64,60,53,100,96,87,30.12,30.06,29.99,10,7,1,12,5,,1.32,7,Rain-Hail,133
2011-12-21,71,67,63,68,65,62,100,96,84,30.00,29.97,29.92,10,6,0,10,4,,0.10,5,Fog-Rain,171
2011-12-22,73,63,53,69,65,51,100,93,84,30.11,29.95,29.84,10,8,0,16,7,31,1.16,7,Fog-Rain-Thunderstorm,196
2011-12-23,54,50,46,49,45,41,92,83,74,30.32,30.23,30.11,10,10,10,13,9,18,0.00,8,,346
2011-12-24,61,52,43,45,42,40,89,74,50,30.41,30.33,30.29,10,10,9,9,6,,0.00,1,Hail,11
2011-12-25,55,52,48,53,50,44,97,93,80,30.36,30.30,30.25,10,8,2,9,4,,0.35,7,Rain,26
2011-12-26,63,56,48,52,46,36,100,77,39,30.27,30.10,29.90,10,8,2,13,7,20,0.61,6,Rain,99
2011-12-27,55,46,37,55,45,35,97,85,68,30.13,29.96,29.87,10,9,4,16,8,26,0.19,6,Rain,256
2011-12-28,59,46,32,40,35,29,97,76,33,30.23,30.14,30.10,10,9,2,7,2,,0.00,0,Hail,273
2011-12-29,64,48,32,44,39,30,97,77,41,30.14,30.06,30.01,10,8,0,9,1,,0.00,0,Fog,207
2011-12-30,71,57,43,56,48,41,100,88,51,30.09,30.03,29.96,10,5,0,14,2,21,0.00,3,Fog,191
2011-12-31,69,55,41,56,48,41,100,84,39,30.19,30.11,30.03,10,5,0,7,3,,0.00,3,Fog-Hail,237